Time;durP1;ratioP1;P1;durP2;ratioP2;P2;SDS_P1;SDS_P2;PMS_P1;PMS_P2;Temp;Humidity;BMP_temperature;BMP_pressure;BME280_temperature;BME280_humidity;BME280_pressure;Samples;Min_cycle;Max_cycle;Signal;HPM_P1;HPM_P2
2022/11/23 00:01:20;;;;;;;28.70;26.00;;;;;;;16.46;100.00;100100.91;5045035;28;19928;-66
2022/11/23 00:03:49;;;;;;;28.33;26.13;;;;;;;16.49;100.00;100086.97;5043189;28;20055;-66
2022/11/23 00:06:17;;;;;;;28.85;26.45;;;;;;;16.53;100.00;100095.59;5063523;28;20048;-67
2022/11/23 00:08:44;;;;;;;32.00;29.35;;;;;;;16.54;100.00;100106.50;5061466;28;20049;-67
2022/11/23 00:11:11;;;;;;;29.92;27.25;;;;;;;16.64;100.00;100113.00;5049312;28;20050;-67
2022/11/23 00:13:39;;;;;;;30.45;27.83;;;;;;;16.68;100.00;100106.34;5050831;28;20045;-67
2022/11/23 00:16:08;;;;;;;31.13;28.15;;;;;;;16.68;100.00;100106.34;5040951;28;20520;-68
2022/11/23 00:18:35;;;;;;;61.65;57.08;;;;;;;16.60;100.00;100107.19;5056796;28;20045;-67
2022/11/23 00:21:10;;;;;;;53.72;49.95;;;;;;;16.74;100.00;100099.41;5049272;28;20049;-67
2022/11/23 00:23:38;;;;;;;41.25;37.13;;;;;;;16.84;100.00;100094.59;5068659;28;20060;-67
2022/11/23 00:26:05;;;;;;;30.08;26.55;;;;;;;16.85;100.00;100079.31;5062301;28;20070;-67
2022/11/23 00:28:33;;;;;;;29.17;26.25;;;;;;;16.79;100.00;100099.25;5058474;28;20052;-69
2022/11/23 00:31:00;;;;;;;29.67;26.05;;;;;;;16.76;100.00;100087.81;5065184;28;20058;-72
2022/11/23 00:33:27;;;;;;;28.30;25.75;;;;;;;16.78;100.00;100100.41;5059189;28;20056;-74
2022/11/23 00:35:59;;;;;;;29.15;26.63;;;;;;;16.81;100.00;100096.09;5052994;28;20056;-74
2022/11/23 00:38:27;;;;;;;30.38;27.27;;;;;;;16.81;100.00;100070.72;5052050;28;20049;-72
2022/11/23 00:41:06;;;;;;;30.85;27.58;;;;;;;16.77;100.00;100064.09;5069193;28;20045;-71
2022/11/23 00:43:33;;;;;;;29.02;26.20;;;;;;;16.90;100.00;100079.16;5043341;28;20365;-66
2022/11/23 00:46:03;;;;;;;33.30;28.00;;;;;;;16.94;100.00;100088.63;5057442;28;20411;-69
2022/11/23 00:48:30;;;;;;;28.58;25.65;;;;;;;16.91;100.00;100078.81;5062779;28;20040;-70
2022/11/23 00:50:59;;;;;;;29.75;26.73;;;;;;;16.84;100.00;100063.59;5058406;28;20049;-72
2022/11/23 00:53:26;;;;;;;26.55;24.00;;;;;;;16.79;100.00;100051.31;5045883;28;20041;-72
2022/11/23 00:55:54;;;;;;;28.45;25.73;;;;;;;16.88;100.00;100036.34;5051041;28;20053;-69
2022/11/23 00:58:21;;;;;;;29.67;26.77;;;;;;;16.81;100.00;100054.63;5042420;28;20505;-69
2022/11/23 01:00:48;;;;;;;28.33;25.00;;;;;;;16.86;100.00;100042.34;5033638;28;20046;-69
2022/11/23 01:03:16;;;;;;;26.92;24.63;;;;;;;16.85;100.00;100048.31;5078653;28;20052;-68
2022/11/23 01:05:43;;;;;;;30.85;26.13;;;;;;;16.85;100.00;100042.66;5046775;28;20052;-69
2022/11/23 01:08:09;;;;;;;28.20;25.48;;;;;;;16.80;100.00;100021.94;5065450;28;20045;-69
2022/11/23 01:10:36;;;;;;;27.52;25.05;;;;;;;16.87;100.00;100052.47;5047794;28;20056;-69
2022/11/23 01:13:03;;;;;;;24.85;23.13;;;;;;;16.91;100.00;100042.16;5047388;28;20174;-69
2022/11/23 01:15:30;;;;;;;26.95;24.88;;;;;;;16.85;100.00;100037.03;5050111;28;20052;-68
2022/11/23 01:17:56;;;;;;;25.23;23.42;;;;;;;16.81;99.87;100042.50;5033510;28;20053;-67
2022/11/23 01:20:23;;;;;;;25.23;23.20;;;;;;;16.71;100.00;100018.28;5038504;28;20079;-70
2022/11/23 01:22:52;;;;;;;25.95;24.13;;;;;;;16.87;100.00;100017.78;5053079;28;20064;-68
2022/11/23 01:25:18;;;;;;;25.50;23.38;;;;;;;16.84;100.00;100035.38;5047535;28;20054;-67
2022/11/23 01:27:45;;;;;;;25.65;23.02;;;;;;;16.75;100.00;100016.50;5043980;28;20049;-68
2022/11/23 01:30:12;;;;;;;26.33;24.05;;;;;;;16.89;100.00;100032.38;5033139;28;20055;-68
2022/11/23 01:32:39;;;;;;;30.55;28.15;;;;;;;16.83;100.00;100028.09;5041948;28;20055;-69
2022/11/23 01:35:06;;;;;;;29.52;27.02;;;;;;;16.83;100.00;100017.63;5053201;28;20498;-69
2022/11/23 01:37:33;;;;;;;30.13;27.67;;;;;;;16.77;100.00;100007.69;5053719;28;20052;-70
2022/11/23 01:40:00;;;;;;;31.60;29.08;;;;;;;16.81;100.00;100006.69;5052569;28;20051;-68
2022/11/23 01:43:00;;;;;;;30.63;28.20;;;;;;;16.72;100.00;100000.22;5045862;28;20496;-69
2022/11/23 01:45:37;;;;;;;29.58;27.58;;;;;;;16.81;100.00;100003.84;5026976;28;20053;-69
2022/11/23 01:48:13;;;;;;;28.38;26.27;;;;;;;16.77;100.00;99988.78;5051533;28;20049;-69
2022/11/23 01:50:41;;;;;;;25.42;23.73;;;;;;;16.79;100.00;99997.75;5052797;28;20048;-69
2022/11/23 01:53:08;;;;;;;26.42;24.50;;;;;;;16.88;100.00;99991.25;5052850;28;20492;-69
2022/11/23 01:55:36;;;;;;;27.35;25.17;;;;;;;16.87;100.00;99986.78;5053204;28;20507;-70
2022/11/23 01:58:05;;;;;;;26.42;24.20;;;;;;;16.90;100.00;99988.91;5052711;28;20053;-70
2022/11/23 02:00:32;;;;;;;28.20;25.40;;;;;;;16.85;100.00;100008.81;5036725;28;20041;-68
2022/11/23 02:03:00;;;;;;;26.20;23.80;;;;;;;16.92;100.00;99997.84;5038980;28;20056;-70
2022/11/23 02:05:36;;;;;;;27.00;24.65;;;;;;;16.84;100.00;99984.63;5049642;28;20045;-71
2022/11/23 02:08:04;;;;;;;30.00;26.83;;;;;;;16.82;100.00;99987.78;5052731;28;20059;-71
2022/11/23 02:10:33;;;;;;;30.15;26.08;;;;;;;16.87;100.00;99972.66;5047956;28;20040;-69
2022/11/23 02:13:08;;;;;;;27.83;24.92;;;;;;;16.84;100.00;99985.44;5062692;28;20056;-68
2022/11/23 02:15:36;;;;;;;26.55;23.88;;;;;;;16.88;100.00;99991.25;5048633;28;20060;-69
2022/11/23 02:18:09;;;;;;;25.45;22.85;;;;;;;16.80;100.00;99990.94;5052796;28;20049;-73
2022/11/23 02:20:36;;;;;;;25.75;23.63;;;;;;;16.80;100.00;99978.81;5046051;28;20041;-74
2022/11/23 02:23:02;;;;;;;25.80;23.45;;;;;;;16.91;100.00;100002.66;5063285;28;20052;-69
2022/11/23 02:25:34;;;;;;;25.60;23.42;;;;;;;16.85;100.00;99983.44;5069258;28;20044;-74
2022/11/23 02:28:00;;;;;;;26.02;24.02;;;;;;;16.81;100.00;99998.22;5072744;28;20067;-73
2022/11/23 02:30:30;;;;;;;25.90;23.77;;;;;;;16.89;100.00;100001.34;5069770;28;20048;-73
2022/11/23 02:32:56;;;;;;;24.27;22.77;;;;;;;16.91;100.00;99973.66;5055909;28;20053;-68
2022/11/23 02:35:25;;;;;;;23.45;22.05;;;;;;;17.01;100.00;99995.84;5069887;28;20052;-70
2022/11/23 02:37:52;;;;;;;25.35;23.65;;;;;;;17.00;100.00;99982.91;5037196;28;20055;-71
2022/11/23 02:40:31;;;;;;;22.77;21.38;;;;;;;17.02;100.00;99986.22;5063377;28;20048;-75
2022/11/23 02:42:59;;;;;;;24.65;22.45;;;;;;;17.07;100.00;99986.03;5076065;28;20522;-75
2022/11/23 02:45:37;;;;;;;25.15;23.55;;;;;;;17.03;100.00;99990.69;5073610;28;20080;-73
2022/11/23 02:48:04;;;;;;;25.02;22.70;;;;;;;16.99;100.00;99992.53;5068130;28;20056;-73
2022/11/23 02:50:31;;;;;;;23.83;22.33;;;;;;;17.02;100.00;99981.38;5052638;28;20045;-74
2022/11/23 02:52:58;;;;;;;41.95;38.90;;;;;;;17.03;100.00;99982.25;5058534;28;20044;-74
2022/11/23 02:55:25;;;;;;;23.17;21.88;;;;;;;16.99;100.00;99981.25;5064779;28;20044;-75
2022/11/23 02:57:52;;;;;;;23.75;22.35;;;;;;;16.99;100.00;99972.78;5073288;28;20069;-76
2022/11/23 03:00:19;;;;;;;24.80;22.55;;;;;;;17.01;100.00;99978.91;5064082;28;20055;-68
2022/11/23 03:02:46;;;;;;;23.30;21.88;;;;;;;16.98;100.00;99973.94;5048708;28;20052;-68
2022/11/23 03:05:13;;;;;;;25.33;22.67;;;;;;;16.96;100.00;99976.28;5051098;28;20410;-70
2022/11/23 03:07:40;;;;;;;25.50;23.35;;;;;;;17.00;100.00;99985.72;5048995;28;20052;-69
2022/11/23 03:10:07;;;;;;;25.90;24.00;;;;;;;17.00;100.00;99963.16;5057584;28;20056;-73
2022/11/23 03:12:34;;;;;;;25.95;23.77;;;;;;;16.94;100.00;99984.25;5047822;28;20052;-71
2022/11/23 03:15:03;;;;;;;25.77;24.08;;;;;;;16.89;100.00;99979.63;5034508;28;20045;-71
2022/11/23 03:17:30;;;;;;;24.95;22.42;;;;;;;16.98;100.00;99968.31;5042564;28;20044;-71
2022/11/23 03:19:56;;;;;;;24.83;22.73;;;;;;;17.00;100.00;99988.56;5063807;28;20395;-73
2022/11/23 03:22:23;;;;;;;27.27;24.67;;;;;;;16.97;100.00;99984.41;5075771;28;20048;-67
2022/11/23 03:24:50;;;;;;;26.23;23.80;;;;;;;16.92;100.00;99984.59;5052234;28;20064;-68
2022/11/23 03:27:17;;;;;;;27.63;24.80;;;;;;;16.91;99.99;99987.75;5036047;28;20076;-67
2022/11/23 03:29:44;;;;;;;25.80;23.52;;;;;;;16.94;100.00;99982.25;5035227;28;20049;-71
2022/11/23 03:32:11;;;;;;;25.48;23.17;;;;;;;16.95;99.79;99994.38;5038678;28;20060;-70
2022/11/23 03:34:38;;;;;;;28.13;25.60;;;;;;;16.96;100.00;99996.88;5050354;28;20041;-69
2022/11/23 03:37:04;;;;;;;25.83;23.75;;;;;;;16.92;100.00;99983.75;5051736;28;20079;-68
2022/11/23 03:39:31;;;;;;;26.23;23.80;;;;;;;16.91;100.00;100002.66;5036722;28;20061;-67
2022/11/23 03:41:58;;;;;;;25.77;23.75;;;;;;;16.95;100.00;99995.19;5044022;28;20051;-68
2022/11/23 03:44:25;;;;;;;25.65;23.27;;;;;;;17.07;100.00;99986.03;5035959;28;20053;-69
2022/11/23 03:46:52;;;;;;;27.80;23.13;;;;;;;17.16;99.88;99992.47;5056429;28;20122;-70
2022/11/23 03:49:20;;;;;;;24.98;22.65;;;;;;;17.12;99.74;99985.84;5060728;28;20419;-70
2022/11/23 03:51:47;;;;;;;29.05;24.83;;;;;;;17.20;99.57;99996.28;5047811;28;20407;-70
2022/11/23 03:54:14;;;;;;;25.30;23.10;;;;;;;17.20;99.60;99999.09;5056639;28;20141;-70
2022/11/23 03:56:41;;;;;;;27.42;24.67;;;;;;;17.17;99.41;99991.31;5042779;28;20048;-70
2022/11/23 03:59:07;;;;;;;25.90;23.35;;;;;;;17.13;99.27;99998.78;5051020;28;20056;-71
2022/11/23 04:01:34;;;;;;;27.65;24.77;;;;;;;17.03;99.44;100005.63;5054833;28;20072;-71
2022/11/23 04:04:01;;;;;;;27.25;23.48;;;;;;;17.00;99.57;99988.56;5040029;28;20056;-71
2022/11/23 04:06:28;;;;;;;27.50;24.02;;;;;;;17.19;99.71;99993.78;5048313;28;20041;-69
2022/11/23 04:08:57;;;;;;;27.67;24.05;;;;;;;17.24;99.45;99994.41;5061095;28;20079;-71
2022/11/23 04:11:27;;;;;;;29.80;25.13;;;;;;;17.25;99.44;100004.53;5039448;28;20056;-73
2022/11/23 04:13:54;;;;;;;32.05;26.27;;;;;;;17.17;99.40;99999.78;5034890;28;20057;-73
2022/11/23 04:16:21;;;;;;;27.17;24.77;;;;;;;17.16;99.37;99997.28;5034996;28;20527;-73
2022/11/23 04:18:48;;;;;;;29.17;24.58;;;;;;;17.11;99.02;100005.94;5042810;28;20060;-72
2022/11/23 04:21:15;;;;;;;32.45;24.52;;;;;;;17.07;99.31;99976.75;5066471;28;20071;-73
2022/11/23 04:23:42;;;;;;;28.67;25.60;;;;;;;17.13;99.52;99995.13;5066768;28;20053;-74
2022/11/23 04:26:08;;;;;;;35.80;26.10;;;;;;;17.08;99.09;100000.97;5047255;28;20108;-73
2022/11/23 04:28:35;;;;;;;29.85;24.88;;;;;;;17.06;99.02;100018.25;5070864;28;20071;-70
2022/11/23 04:31:02;;;;;;;28.17;23.77;;;;;;;17.03;99.28;100033.84;5069585;28;20049;-69
2022/11/23 04:33:30;;;;;;;27.52;25.08;;;;;;;16.93;99.45;100031.38;5069171;28;20040;-70
2022/11/23 04:35:57;;;;;;;26.58;24.50;;;;;;;16.68;98.85;100010.50;5059294;28;20727;-69
2022/11/23 04:38:24;;;;;;;26.92;25.23;;;;;;;16.35;98.65;100027.94;5068172;28;20052;-69
2022/11/23 04:40:51;;;;;;;27.08;25.15;;;;;;;16.20;99.57;100021.97;5056786;28;20070;-71
2022/11/23 04:43:18;;;;;;;28.77;26.65;;;;;;;16.07;98.99;100035.09;5071659;28;20056;-69
2022/11/23 04:45:44;;;;;;;29.67;27.05;;;;;;;15.98;99.60;100032.25;5070368;28;20052;-68
2022/11/23 04:48:11;;;;;;;29.35;26.90;;;;;;;16.01;100.00;100047.66;5071354;28;20048;-71
2022/11/23 04:50:40;;;;;;;29.63;27.10;;;;;;;16.00;100.00;100045.97;5040051;28;20404;-71
2022/11/23 04:53:09;;;;;;;29.63;27.15;;;;;;;16.03;100.00;100039.69;5061017;28;20044;-71
2022/11/23 04:55:36;;;;;;;30.52;27.63;;;;;;;16.04;100.00;100036.56;5054128;28;20045;-71
2022/11/23 04:58:02;;;;;;;30.85;28.20;;;;;;;16.09;100.00;100041.19;5051493;28;20052;-71
2022/11/23 05:00:29;;;;;;;28.70;26.38;;;;;;;16.13;100.00;100045.00;5056813;28;20064;-72
2022/11/23 05:03:00;;;;;;;30.27;27.17;;;;;;;16.15;100.00;100042.69;5045835;28;20049;-72
2022/11/23 05:05:27;;;;;;;29.20;26.35;;;;;;;16.14;100.00;100043.88;5046880;28;20044;-71
2022/11/23 05:07:55;;;;;;;32.67;29.42;;;;;;;16.19;100.00;100031.59;5063390;28;20055;-72
2022/11/23 05:10:22;;;;;;;26.33;24.30;;;;;;;16.20;100.00;100047.34;5061742;28;20044;-72
2022/11/23 05:12:49;;;;;;;26.83;24.38;;;;;;;16.02;100.00;100054.94;5050073;28;20088;-67
2022/11/23 05:15:15;;;;;;;25.27;23.67;;;;;;;15.85;100.00;100055.75;5048340;28;20049;-68
2022/11/23 05:17:42;;;;;;;25.52;23.38;;;;;;;15.55;99.44;100051.81;5046217;28;20041;-67
2022/11/23 05:20:10;;;;;;;26.52;24.80;;;;;;;15.34;99.93;100043.97;5057896;28;20068;-68
2022/11/23 05:22:37;;;;;;;28.48;25.98;;;;;;;15.38;100.00;100052.59;5061135;28;20049;-67
2022/11/23 05:25:04;;;;;;;27.88;25.38;;;;;;;15.38;100.00;100049.78;5052460;28;20045;-67
2022/11/23 05:27:31;;;;;;;28.08;25.60;;;;;;;15.47;100.00;100061.06;5051590;28;20056;-68
2022/11/23 05:29:58;;;;;;;29.27;26.70;;;;;;;15.56;100.00;100073.19;5073248;28;20048;-68
2022/11/23 05:32:25;;;;;;;27.83;25.50;;;;;;;15.52;100.00;100058.09;5041528;28;20082;-66
2022/11/23 05:34:51;;;;;;;29.80;27.33;;;;;;;15.60;100.00;100089.09;5050661;28;20055;-66
2022/11/23 05:37:18;;;;;;;29.13;26.50;;;;;;;15.65;100.00;100085.28;5045033;28;20049;-67
2022/11/23 05:39:45;;;;;;;28.60;25.73;;;;;;;15.66;100.00;100092.63;5052953;28;20044;-68
2022/11/23 05:42:12;;;;;;;27.80;24.98;;;;;;;15.62;100.00;100097.19;5047173;28;20495;-67
2022/11/23 05:44:39;;;;;;;27.90;25.33;;;;;;;15.59;100.00;100109.13;5059711;28;20040;-68
2022/11/23 05:47:06;;;;;;;28.42;25.40;;;;;;;15.58;100.00;100115.91;5064995;28;20044;-67
2022/11/23 05:49:33;;;;;;;28.95;26.27;;;;;;;15.54;100.00;100112.09;5038182;28;20045;-68
2022/11/23 05:52:00;;;;;;;26.35;24.25;;;;;;;15.48;100.00;100099.31;5047457;28;20052;-67
2022/11/23 05:54:27;;;;;;;27.25;24.95;;;;;;;15.46;100.00;100098.81;5037496;28;20056;-67
2022/11/23 05:56:53;;;;;;;26.98;24.17;;;;;;;15.49;100.00;100100.97;5036849;28;20527;-67
2022/11/23 05:59:20;;;;;;;25.77;23.80;;;;;;;15.41;100.00;100086.53;5039030;28;20049;-68
2022/11/23 06:01:47;;;;;;;26.50;24.08;;;;;;;15.44;100.00;100110.38;5039371;28;20042;-68
2022/11/23 06:04:14;;;;;;;27.63;25.30;;;;;;;15.47;100.00;100108.91;5051879;28;20490;-68
2022/11/23 06:06:41;;;;;;;26.90;24.50;;;;;;;15.46;99.99;100104.44;5051030;28;20072;-67
2022/11/23 06:09:08;;;;;;;27.67;25.00;;;;;;;15.38;99.91;100109.72;5066302;28;20046;-66
2022/11/23 06:11:34;;;;;;;29.48;26.52;;;;;;;15.40;99.91;100129.88;5048108;28;20069;-67
2022/11/23 06:14:01;;;;;;;29.98;26.40;;;;;;;15.36;100.00;100128.06;5046542;28;20052;-66
2022/11/23 06:16:28;;;;;;;26.88;24.17;;;;;;;15.34;100.00;100131.19;5050950;28;20144;-67
2022/11/23 06:18:55;;;;;;;25.83;23.77;;;;;;;15.29;99.90;100131.34;5045159;28;20081;-67
2022/11/23 06:21:21;;;;;;;27.58;24.75;;;;;;;15.24;99.78;100120.19;5068931;28;20055;-68
2022/11/23 06:23:48;;;;;;;28.15;25.67;;;;;;;15.27;100.00;100129.97;5069457;28;20057;-67
2022/11/23 06:26:15;;;;;;;29.23;26.27;;;;;;;15.28;99.64;100124.06;5060535;28;20045;-67
2022/11/23 06:28:42;;;;;;;30.63;25.90;;;;;;;15.32;100.00;100130.69;5054479;28;20051;-66
2022/11/23 06:31:09;;;;;;;29.73;26.58;;;;;;;15.47;100.00;100137.88;5049435;28;20041;-72
2022/11/23 06:33:37;;;;;;;27.92;25.02;;;;;;;15.48;100.00;100128.25;5045734;28;20079;-71
2022/11/23 06:36:04;;;;;;;28.90;25.98;;;;;;;15.50;100.00;100137.22;5038229;28;20365;-71
2022/11/23 06:38:32;;;;;;;31.58;25.05;;;;;;;15.53;100.00;100149.84;5054535;28;20051;-71
2022/11/23 06:40:59;;;;;;;30.00;24.58;;;;;;;16.02;100.00;100153.53;5063404;28;20499;-67
2022/11/23 06:43:27;;;;;;;30.73;25.27;;;;;;;16.36;100.00;100172.50;5054930;28;20049;-68
2022/11/23 06:45:54;;;;;;;33.78;25.42;;;;;;;16.45;99.20;100187.44;5044025;28;20435;-67
2022/11/23 06:48:21;;;;;;;34.47;26.35;;;;;;;16.42;98.36;100198.53;5043791;28;20052;-64
2022/11/23 06:50:48;;;;;;;35.22;26.60;;;;;;;16.35;97.30;100202.66;5042989;28;20053;-65
2022/11/23 06:53:15;;;;;;;29.20;25.38;;;;;;;16.08;96.48;100211.38;5032256;28;20064;-65
2022/11/23 06:55:42;;;;;;;35.05;25.08;;;;;;;15.80;96.20;100185.41;5032299;28;20053;-65
2022/11/23 06:58:09;;;;;;;32.58;25.50;;;;;;;15.51;96.15;100183.09;5030012;28;20060;-67
2022/11/23 07:00:36;;;;;;;34.13;27.13;;;;;;;15.28;96.66;100197.19;5053107;28;20048;-67
2022/11/23 07:03:02;;;;;;;42.33;30.92;;;;;;;15.15;96.52;100200.91;5066272;28;20047;-66
2022/11/23 07:05:29;;;;;;;45.30;31.88;;;;;;;15.00;96.71;100187.22;5034966;28;20451;-65
2022/11/23 07:07:56;;;;;;;45.70;30.23;;;;;;;14.90;97.16;100191.94;5037170;28;20072;-66
2022/11/23 07:10:24;;;;;;;52.53;46.92;;;;;;;14.84;97.23;100206.47;5031503;28;20045;-67
2022/11/23 07:12:52;;;;;;;43.40;29.02;;;;;;;14.73;97.41;100200.22;5034468;28;20496;-66
2022/11/23 07:15:19;;;;;;;52.58;47.33;;;;;;;14.68;97.46;100203.16;5033622;28;20507;-67
2022/11/23 07:17:46;;;;;;;51.60;30.60;;;;;;;14.58;97.79;100209.00;5046065;28;20045;-67
2022/11/23 07:20:13;;;;;;;44.55;31.77;;;;;;;14.51;97.80;100197.38;5041759;28;20057;-67
2022/11/23 07:22:40;;;;;;;46.90;30.13;;;;;;;14.51;97.82;100208.63;5049646;28;20050;-68
2022/11/23 07:25:07;;;;;;;41.92;28.63;;;;;;;14.46;97.55;100216.00;5052636;28;20041;-66
2022/11/23 07:27:34;;;;;;;49.20;27.77;;;;;;;14.40;97.82;100230.47;5038755;28;20053;-68
2022/11/23 07:30:01;;;;;;;46.30;27.33;;;;;;;14.43;97.86;100238.25;5041448;28;20049;-67
2022/11/23 07:32:29;;;;;;;38.90;29.73;;;;;;;14.38;98.17;100239.19;5049847;28;20051;-68
2022/11/23 07:34:56;;;;;;;36.90;26.15;;;;;;;14.41;98.07;100261.03;5048213;28;20045;-68
2022/11/23 07:37:23;;;;;;;50.35;45.63;;;;;;;14.39;98.37;100249.28;5045714;28;20161;-67
2022/11/23 07:39:51;;;;;;;46.67;34.50;;;;;;;14.41;98.18;100243.34;5044072;28;20128;-67
2022/11/23 07:42:23;;;;;;;41.53;27.58;;;;;;;14.43;98.57;100243.88;5036286;28;20049;-67
2022/11/23 07:45:02;;;;;;;44.10;28.55;;;;;;;14.43;98.24;100247.53;5061010;28;20494;-67
2022/11/23 07:47:30;;;;;;;51.25;44.35;;;;;;;14.39;98.48;100256.88;5037907;28;20056;-67
2022/11/23 07:49:57;;;;;;;34.08;29.20;;;;;;;14.41;98.23;100263.03;5073892;28;20049;-67
2022/11/23 07:52:24;;;;;;;44.92;29.17;;;;;;;14.38;98.46;100258.84;5050687;28;20050;-67
2022/11/23 07:54:50;;;;;;;52.05;47.47;;;;;;;14.41;98.88;100266.66;5053036;28;20056;-67
2022/11/23 07:57:17;;;;;;;46.35;31.52;;;;;;;14.48;98.72;100268.22;5043663;28;20057;-67
2022/11/23 07:59:44;;;;;;;38.30;31.73;;;;;;;14.52;98.71;100264.47;5057930;28;20053;-67
2022/11/23 08:02:14;;;;;;;49.78;45.53;;;;;;;14.51;98.88;100265.63;5052893;28;20052;-68
2022/11/23 08:04:41;;;;;;;44.78;33.08;;;;;;;14.63;98.90;100281.94;5042688;28;20050;-68
2022/11/23 08:07:08;;;;;;;37.90;30.17;;;;;;;14.68;98.77;100285.50;5034491;28;20514;-67
2022/11/23 08:09:35;;;;;;;33.58;30.25;;;;;;;14.71;98.51;100275.59;5031828;28;20132;-68
2022/11/23 08:12:03;;;;;;;56.90;50.65;;;;;;;14.74;98.09;100291.84;5034196;28;20479;-66
2022/11/23 08:14:30;;;;;;;45.83;30.27;;;;;;;14.74;98.29;100286.22;5050721;28;20052;-67
2022/11/23 08:16:57;;;;;;;42.45;31.35;;;;;;;14.79;97.96;100294.53;5052645;28;20053;-66
2022/11/23 08:19:24;;;;;;;51.45;30.13;;;;;;;14.82;97.94;100301.50;5039375;28;20056;-67
2022/11/23 08:21:51;;;;;;;37.80;30.38;;;;;;;14.84;97.60;100296.41;5032983;28;20049;-68
2022/11/23 08:24:17;;;;;;;39.80;28.77;;;;;;;14.85;97.50;100301.72;5040510;28;20045;-67
2022/11/23 08:26:44;;;;;;;48.13;43.40;;;;;;;14.91;97.58;100313.69;5034352;28;20053;-67
2022/11/23 08:29:11;;;;;;;42.00;29.85;;;;;;;14.92;97.47;100312.53;5046109;28;20045;-68
2022/11/23 08:31:38;;;;;;;43.55;30.05;;;;;;;14.94;97.16;100313.06;5033242;28;20045;-65
2022/11/23 08:34:05;;;;;;;47.22;30.98;;;;;;;14.89;96.75;100316.78;5028922;28;20155;-67
2022/11/23 08:36:32;;;;;;;41.72;27.75;;;;;;;14.87;96.76;100321.91;5038581;28;20062;-67
2022/11/23 08:38:58;;;;;;;48.85;27.73;;;;;;;14.80;96.59;100326.28;5071337;28;20055;-66
2022/11/23 08:41:26;;;;;;;45.72;29.13;;;;;;;14.70;97.01;100332.97;5035662;28;20060;-66
2022/11/23 08:43:52;;;;;;;48.38;43.97;;;;;;;14.75;96.91;100354.50;5041157;28;20151;-66
2022/11/23 08:46:19;;;;;;;47.50;29.17;;;;;;;14.75;97.04;100349.72;5047983;28;20388;-66
2022/11/23 08:48:46;;;;;;;36.42;29.05;;;;;;;14.72;97.30;100353.16;5046622;28;20052;-66
2022/11/23 08:51:13;;;;;;;46.72;41.58;;;;;;;14.72;97.36;100352.31;5050035;28;20049;-67
2022/11/23 08:53:40;;;;;;;38.08;28.60;;;;;;;14.72;97.49;100355.97;5054239;28;20064;-66
2022/11/23 08:56:07;;;;;;;49.75;28.98;;;;;;;14.79;97.48;100359.19;5043889;28;20048;-65
2022/11/23 08:58:35;;;;;;;72.18;65.63;;;;;;;14.79;97.49;100359.19;5043156;28;20053;-65
2022/11/23 09:01:07;;;;;;;40.15;31.23;;;;;;;14.80;97.18;100369.31;5051954;28;20411;-66
2022/11/23 09:03:34;;;;;;;39.50;30.55;;;;;;;14.79;97.51;100373.25;5047400;28;20061;-66
2022/11/23 09:06:00;;;;;;;51.40;29.17;;;;;;;14.79;97.54;100367.63;5050605;28;20053;-66
2022/11/23 09:08:28;;;;;;;51.55;28.80;;;;;;;14.85;97.33;100366.38;5050731;28;20048;-66
2022/11/23 09:11:03;;;;;;;56.95;32.13;;;;;;;14.87;97.43;100369.72;5051804;28;20060;-65
2022/11/23 09:13:30;;;;;;;47.28;29.45;;;;;;;14.86;97.64;100356.78;5045346;28;20053;-65
2022/11/23 09:15:58;;;;;;;39.92;29.05;;;;;;;14.97;97.80;100356.56;5041841;28;20049;-65
2022/11/23 09:18:26;;;;;;;42.38;33.00;;;;;;;15.04;98.02;100369.06;5041321;28;20643;-66
2022/11/23 09:20:53;;;;;;;39.90;28.90;;;;;;;15.06;97.77;100371.56;5040201;28;20083;-66
2022/11/23 09:23:20;;;;;;;64.30;58.38;;;;;;;15.12;98.19;100381.53;5042580;28;20041;-66
2022/11/23 09:25:48;;;;;;;45.03;30.35;;;;;;;15.16;97.71;100388.19;5041268;28;20053;-67
2022/11/23 09:28:18;;;;;;;50.70;31.23;;;;;;;15.17;97.78;100378.59;5044049;28;20055;-67
2022/11/23 09:30:46;;;;;;;37.58;29.92;;;;;;;15.16;98.35;100362.88;5042497;28;20053;-67
2022/11/23 09:33:13;;;;;;;46.42;29.63;;;;;;;15.24;98.59;100370.56;5036276;28;20041;-67
2022/11/23 09:35:40;;;;;;;39.65;29.50;;;;;;;15.17;97.66;100372.97;5040869;28;20048;-67
2022/11/23 09:38:09;;;;;;;40.10;28.20;;;;;;;15.12;97.90;100387.16;5038959;28;20518;-65
2022/11/23 09:40:38;;;;;;;42.47;38.15;;;;;;;15.06;97.54;100382.81;5044977;28;20289;-65
2022/11/23 09:43:39;;;;;;;42.05;29.85;;;;;;;15.06;97.41;100385.63;5043111;28;20064;-66
2022/11/23 09:46:40;;;;;;;49.28;28.88;;;;;;;15.07;97.85;100390.91;5033968;28;20071;-67
2022/11/23 09:49:12;;;;;;;39.63;30.25;;;;;;;15.22;98.12;100397.38;5043830;28;20048;-66
2022/11/23 09:51:41;;;;;;;61.63;56.17;;;;;;;15.37;98.27;100397.84;5042281;28;20507;-66
2022/11/23 09:54:34;;;;;;;35.38;31.65;;;;;;;15.38;98.03;100402.34;5044689;28;20045;-65
2022/11/23 09:57:03;;;;;;;35.10;29.40;;;;;;;15.51;98.75;100408.22;5036787;28;20566;-66
2022/11/23 09:59:29;;;;;;;44.78;39.80;;;;;;;15.65;98.87;100415.47;5039880;28;20424;-66
2022/11/23 10:01:58;;;;;;;43.25;31.05;;;;;;;15.77;99.10;100403.69;5040725;28;20048;-66
2022/11/23 10:04:28;;;;;;;35.25;28.25;;;;;;;15.81;98.20;100396.25;5060381;28;20053;-66
2022/11/23 10:07:01;;;;;;;39.20;29.10;;;;;;;15.82;98.55;100400.72;5041920;28;20060;-66
2022/11/23 10:09:41;;;;;;;43.28;30.17;;;;;;;15.80;98.09;100405.88;5038236;28;20156;-66
2022/11/23 10:12:20;;;;;;;38.83;28.67;;;;;;;15.92;98.44;100402.47;5041793;28;20038;-66
2022/11/23 10:15:16;;;;;;;35.40;29.10;;;;;;;15.88;97.57;100416.34;5048988;28;20575;-65
2022/11/23 10:18:07;;;;;;;34.75;28.50;;;;;;;16.10;98.31;100428.75;5043866;28;20302;-66
2022/11/23 10:21:05;;;;;;;51.33;46.63;;;;;;;16.42;99.33;100429.66;5040496;28;20053;-65
2022/11/23 10:23:41;;;;;;;35.30;28.08;;;;;;;16.92;100.00;100427.44;5045679;28;20141;-66
2022/11/23 10:26:14;;;;;;;58.50;52.63;;;;;;;17.18;100.00;100424.66;5044354;28;20060;-66
2022/11/23 10:28:42;;;;;;;50.00;29.35;;;;;;;17.34;100.00;100422.22;5036189;28;21497;-67
2022/11/23 10:31:16;;;;;;;45.50;29.80;;;;;;;17.34;100.00;100427.88;5031659;28;20045;-67
2022/11/23 10:34:14;;;;;;;41.10;30.30;;;;;;;17.32;100.00;100437.81;5033432;28;20051;-65
2022/11/23 10:36:41;;;;;;;32.85;29.27;;;;;;;17.61;100.00;100438.03;5035709;28;20041;-66
2022/11/23 10:39:25;;;;;;;38.83;34.03;;;;;;;18.22;100.00;100430.41;5040223;28;20506;-66
2022/11/23 10:41:53;;;;;;;54.70;33.17;;;;;;;19.03;100.00;100439.16;5043191;28;20045;-66
2022/11/23 10:44:35;;;;;;;30.48;27.50;;;;;;;19.80;100.00;100451.19;5037411;28;20064;-65
2022/11/23 10:47:01;;;;;;;33.53;27.73;;;;;;;20.23;100.00;100444.31;5035595;28;20552;-66
2022/11/23 10:49:31;;;;;;;32.63;28.58;;;;;;;20.30;100.00;100444.56;5035301;28;20512;-66
2022/11/23 10:52:25;;;;;;;38.15;30.35;;;;;;;20.36;100.00;100451.69;5039768;28;20057;-66
2022/11/23 10:54:55;;;;;;;47.45;41.13;;;;;;;20.81;100.00;100436.69;5035661;28;20052;-65
2022/11/23 10:57:29;;;;;;;42.22;27.45;;;;;;;20.43;99.19;100434.91;5046846;28;20091;-66
2022/11/23 11:00:11;;;;;;;31.10;27.83;;;;;;;20.29;99.27;100446.56;5043187;28;20190;-66
2022/11/23 11:02:58;;;;;;;31.67;25.77;;;;;;;21.45;100.00;100438.03;5044085;28;20057;-65
2022/11/23 11:05:30;;;;;;;36.15;26.05;;;;;;;21.55;97.66;100457.44;5044650;28;20053;-65
2022/11/23 11:08:19;;;;;;;54.35;50.50;;;;;;;20.93;95.53;100450.06;5044744;28;20048;-66
2022/11/23 11:11:29;;;;;;;31.73;25.42;;;;;;;20.29;95.07;100462.75;5048771;28;20063;-65
2022/11/23 11:14:22;;;;;;;36.65;26.50;;;;;;;20.11;95.59;100468.59;5044684;28;20045;-65
2022/11/23 11:16:56;;;;;;;28.00;25.17;;;;;;;20.36;95.58;100477.19;5049203;28;20567;-64